sensor_id;sensor_type;location;lat;lon;timestamp;pressure;altitude;pressure_sealevel;temperature;humidity
52957;BME280;38819;42.692;23.342;2023-08-07T00:01:21;94741.22;;;19.48;64.60
52957;BME280;38819;42.692;23.342;2023-08-07T00:03:46;94732.06;;;19.60;63.90
52957;BME280;38819;42.692;23.342;2023-08-07T00:06:12;94718.28;;;19.56;63.81
52957;BME280;38819;42.692;23.342;2023-08-07T00:08:38;94726.16;;;19.58;63.92
52957;BME280;38819;42.692;23.342;2023-08-07T00:11:09;94724.13;;;19.55;63.90
52957;BME280;38819;42.692;23.342;2023-08-07T00:13:36;94731.41;;;19.47;64.14
52957;BME280;38819;42.692;23.342;2023-08-07T00:16:02;94737.75;;;19.51;64.29
52957;BME280;38819;42.692;23.342;2023-08-07T00:18:28;94732.00;;;19.56;63.89
52957;BME280;38819;42.692;23.342;2023-08-07T00:20:54;94722.13;;;19.52;63.73
52957;BME280;38819;42.692;23.342;2023-08-07T00:23:20;94742.00;;;19.68;63.65
52957;BME280;38819;42.692;23.342;2023-08-07T00:25:45;94742.94;;;19.56;63.99
52957;BME280;38819;42.692;23.342;2023-08-07T00:28:11;94741.22;;;19.48;63.93
52957;BME280;38819;42.692;23.342;2023-08-07T00:30:36;94733.66;;;19.41;63.80
52957;BME280;38819;42.692;23.342;2023-08-07T00:33:01;94737.09;;;19.38;63.78
52957;BME280;38819;42.692;23.342;2023-08-07T00:35:28;94730.41;;;19.36;64.04
52957;BME280;38819;42.692;23.342;2023-08-07T00:37:53;94735.94;;;19.39;63.99
52957;BME280;38819;42.692;23.342;2023-08-07T00:40:20;94738.47;;;19.48;63.59
52957;BME280;38819;42.692;23.342;2023-08-07T00:42:45;94741.34;;;19.36;64.24
52957;BME280;38819;42.692;23.342;2023-08-07T00:45:11;94737.47;;;19.37;64.42
52957;BME280;38819;42.692;23.342;2023-08-07T00:47:37;94740.13;;;19.33;64.35
52957;BME280;38819;42.692;23.342;2023-08-07T00:50:03;94738.91;;;19.31;64.51
52957;BME280;38819;42.692;23.342;2023-08-07T00:52:30;94737.03;;;19.35;64.07
52957;BME280;38819;42.692;23.342;2023-08-07T00:54:56;94748.56;;;19.44;63.86
52957;BME280;38819;42.692;23.342;2023-08-07T00:57:21;94754.84;;;19.44;63.83
52957;BME280;38819;42.692;23.342;2023-08-07T00:59:48;94755.34;;;19.50;63.90
52957;BME280;38819;42.692;23.342;2023-08-07T01:02:14;94763.91;;;19.49;63.79
52957;BME280;38819;42.692;23.342;2023-08-07T01:04:40;94761.81;;;19.42;63.64
52957;BME280;38819;42.692;23.342;2023-08-07T01:07:06;94776.88;;;19.32;64.07
52957;BME280;38819;42.692;23.342;2023-08-07T01:09:32;94775.09;;;19.40;64.20
52957;BME280;38819;42.692;23.342;2023-08-07T01:14:52;94783.63;;;19.19;65.14
52957;BME280;38819;42.692;23.342;2023-08-07T01:17:22;94779.22;;;19.14;65.31
52957;BME280;38819;42.692;23.342;2023-08-07T01:19:50;94782.56;;;19.23;65.03
52957;BME280;38819;42.692;23.342;2023-08-07T01:22:18;94780.97;;;19.22;65.03
52957;BME280;38819;42.692;23.342;2023-08-07T01:24:46;94784.66;;;19.30;64.80
52957;BME280;38819;42.692;23.342;2023-08-07T01:35:20;94781.78;;;19.23;65.54
52957;BME280;38819;42.692;23.342;2023-08-07T01:37:48;94779.81;;;19.23;65.39
52957;BME280;38819;42.692;23.342;2023-08-07T01:40:15;94773.25;;;19.09;66.02
52957;BME280;38819;42.692;23.342;2023-08-07T01:42:43;94772.97;;;19.14;65.84
52957;BME280;38819;42.692;23.342;2023-08-07T01:45:09;94763.31;;;19.20;65.65
52957;BME280;38819;42.692;23.342;2023-08-07T01:47:34;94771.28;;;19.09;66.46
52957;BME280;38819;42.692;23.342;2023-08-07T01:50:00;94770.09;;;19.06;65.96
52957;BME280;38819;42.692;23.342;2023-08-07T01:52:26;94772.47;;;19.08;66.34
52957;BME280;38819;42.692;23.342;2023-08-07T01:54:51;94763.00;;;19.05;66.35
52957;BME280;38819;42.692;23.342;2023-08-07T01:57:17;94776.63;;;19.02;66.19
52957;BME280;38819;42.692;23.342;2023-08-07T01:59:42;94779.88;;;19.07;66.35
52957;BME280;38819;42.692;23.342;2023-08-07T02:02:08;94776.78;;;19.09;66.33
52957;BME280;38819;42.692;23.342;2023-08-07T02:04:34;94784.03;;;19.01;66.07
52957;BME280;38819;42.692;23.342;2023-08-07T02:06:59;94795.94;;;19.09;66.00
52957;BME280;38819;42.692;23.342;2023-08-07T02:09:25;94787.56;;;19.02;66.36
52957;BME280;38819;42.692;23.342;2023-08-07T02:11:50;94793.41;;;19.00;66.58
52957;BME280;38819;42.692;23.342;2023-08-07T02:14:16;94790.38;;;19.05;66.33
52957;BME280;38819;42.692;23.342;2023-08-07T02:16:41;94796.75;;;19.10;66.27
52957;BME280;38819;42.692;23.342;2023-08-07T02:19:06;94801.13;;;19.14;66.10
52957;BME280;38819;42.692;23.342;2023-08-07T02:21:32;94798.38;;;18.95;66.39
52957;BME280;38819;42.692;23.342;2023-08-07T02:23:57;94808.59;;;18.82;67.33
52957;BME280;38819;42.692;23.342;2023-08-07T02:26:23;94818.06;;;18.84;67.05
52957;BME280;38819;42.692;23.342;2023-08-07T02:28:48;94807.91;;;18.85;67.01
52957;BME280;38819;42.692;23.342;2023-08-07T02:31:14;94802.88;;;18.87;66.89
52957;BME280;38819;42.692;23.342;2023-08-07T02:33:39;94810.22;;;18.83;67.31
52957;BME280;38819;42.692;23.342;2023-08-07T02:36:06;94810.38;;;18.90;67.04
52957;BME280;38819;42.692;23.342;2023-08-07T02:38:31;94812.22;;;18.86;67.01
52957;BME280;38819;42.692;23.342;2023-08-07T02:40:57;94809.72;;;18.81;67.27
52957;BME280;38819;42.692;23.342;2023-08-07T02:43:22;94807.88;;;18.69;67.78
52957;BME280;38819;42.692;23.342;2023-08-07T02:45:48;94814.88;;;18.66;67.84
52957;BME280;38819;42.692;23.342;2023-08-07T02:48:13;94813.69;;;18.67;68.11
52957;BME280;38819;42.692;23.342;2023-08-07T02:50:39;94815.94;;;18.62;67.97
52957;BME280;38819;42.692;23.342;2023-08-07T02:53:04;94816.13;;;18.53;68.28
52957;BME280;38819;42.692;23.342;2023-08-07T02:55:29;94816.81;;;18.50;68.41
52957;BME280;38819;42.692;23.342;2023-08-07T02:57:55;94816.28;;;18.44;68.48
52957;BME280;38819;42.692;23.342;2023-08-07T03:00:20;94815.56;;;18.47;68.33
52957;BME280;38819;42.692;23.342;2023-08-07T03:02:46;94822.09;;;18.59;68.14
52957;BME280;38819;42.692;23.342;2023-08-07T03:05:11;94825.00;;;18.50;68.35
52957;BME280;38819;42.692;23.342;2023-08-07T03:07:36;94838.69;;;18.50;68.28
52957;BME280;38819;42.692;23.342;2023-08-07T03:10:02;94827.47;;;18.39;68.36
52957;BME280;38819;42.692;23.342;2023-08-07T03:12:29;94836.75;;;18.35;68.73
52957;BME280;38819;42.692;23.342;2023-08-07T03:14:54;94825.28;;;18.45;68.16
52957;BME280;38819;42.692;23.342;2023-08-07T03:17:19;94830.31;;;18.43;68.10
52957;BME280;38819;42.692;23.342;2023-08-07T03:19:45;94847.75;;;18.54;67.84
52957;BME280;38819;42.692;23.342;2023-08-07T03:22:11;94842.84;;;18.60;67.40
52957;BME280;38819;42.692;23.342;2023-08-07T03:24:37;94841.25;;;18.59;67.34
52957;BME280;38819;42.692;23.342;2023-08-07T03:27:03;94845.94;;;18.58;67.25
52957;BME280;38819;42.692;23.342;2023-08-07T03:29:28;94848.50;;;18.51;67.08
52957;BME280;38819;42.692;23.342;2023-08-07T03:31:53;94850.97;;;18.56;66.50
52957;BME280;38819;42.692;23.342;2023-08-07T03:34:19;94857.13;;;18.69;66.54
52957;BME280;38819;42.692;23.342;2023-08-07T03:36:45;94860.66;;;18.69;66.63
52957;BME280;38819;42.692;23.342;2023-08-07T03:39:10;94873.63;;;18.73;66.87
52957;BME280;38819;42.692;23.342;2023-08-07T03:41:37;94871.69;;;18.73;66.64
52957;BME280;38819;42.692;23.342;2023-08-07T03:44:02;94874.22;;;18.66;66.26
52957;BME280;38819;42.692;23.342;2023-08-07T03:46:28;94875.22;;;18.58;66.53
52957;BME280;38819;42.692;23.342;2023-08-07T03:48:53;94887.56;;;18.67;66.51
52957;BME280;38819;42.692;23.342;2023-08-07T03:51:19;94888.38;;;18.68;66.34
52957;BME280;38819;42.692;23.342;2023-08-07T03:53:44;94886.69;;;18.79;66.38
52957;BME280;38819;42.692;23.342;2023-08-07T03:56:10;94891.28;;;18.75;65.72
52957;BME280;38819;42.692;23.342;2023-08-07T03:58:35;94883.00;;;18.72;66.14
52957;BME280;38819;42.692;23.342;2023-08-07T04:01:01;94875.47;;;18.68;65.91
52957;BME280;38819;42.692;23.342;2023-08-07T04:03:26;94877.59;;;18.75;65.68
52957;BME280;38819;42.692;23.342;2023-08-07T04:05:52;94885.38;;;18.89;65.00
52957;BME280;38819;42.692;23.342;2023-08-07T04:08:19;94887.78;;;18.91;64.63
52957;BME280;38819;42.692;23.342;2023-08-07T04:10:44;94906.22;;;18.94;64.22
52957;BME280;38819;42.692;23.342;2023-08-07T04:13:10;94902.16;;;19.03;63.96
52957;BME280;38819;42.692;23.342;2023-08-07T04:15:35;94895.09;;;19.02;63.93
52957;BME280;38819;42.692;23.342;2023-08-07T04:18:01;94900.84;;;19.13;63.27
52957;BME280;38819;42.692;23.342;2023-08-07T04:20:26;94903.03;;;19.07;63.31
52957;BME280;38819;42.692;23.342;2023-08-07T04:22:52;94908.78;;;19.02;63.57
52957;BME280;38819;42.692;23.342;2023-08-07T04:25:17;94920.41;;;18.99;63.51
52957;BME280;38819;42.692;23.342;2023-08-07T04:27:42;94908.06;;;19.05;63.31
52957;BME280;38819;42.692;23.342;2023-08-07T04:30:08;94926.72;;;19.00;63.54
52957;BME280;38819;42.692;23.342;2023-08-07T04:32:34;94916.56;;;19.00;63.72
52957;BME280;38819;42.692;23.342;2023-08-07T04:34:59;94907.91;;;18.98;63.75
52957;BME280;38819;42.692;23.342;2023-08-07T04:37:24;94914.78;;;19.08;63.89
52957;BME280;38819;42.692;23.342;2023-08-07T04:39:50;94914.00;;;18.92;63.97
52957;BME280;38819;42.692;23.342;2023-08-07T04:42:15;94923.25;;;18.87;64.37
52957;BME280;38819;42.692;23.342;2023-08-07T04:44:41;94919.47;;;18.92;63.57
52957;BME280;38819;42.692;23.342;2023-08-07T04:47:06;94927.34;;;18.93;63.76
52957;BME280;38819;42.692;23.342;2023-08-07T04:49:32;94918.41;;;18.96;63.80
52957;BME280;38819;42.692;23.342;2023-08-07T04:51:57;94933.41;;;18.86;63.52
52957;BME280;38819;42.692;23.342;2023-08-07T04:54:22;94926.50;;;18.77;63.31
52957;BME280;38819;42.692;23.342;2023-08-07T04:56:48;94926.16;;;18.78;63.85
52957;BME280;38819;42.692;23.342;2023-08-07T04:59:13;94915.13;;;18.75;63.75
52957;BME280;38819;42.692;23.342;2023-08-07T05:01:39;94917.94;;;18.78;63.60
52957;BME280;38819;42.692;23.342;2023-08-07T05:04:04;94913.34;;;18.82;63.65
52957;BME280;38819;42.692;23.342;2023-08-07T05:06:30;94919.81;;;18.90;63.83
52957;BME280;38819;42.692;23.342;2023-08-07T05:08:56;94914.19;;;18.83;63.48
52957;BME280;38819;42.692;23.342;2023-08-07T05:11:21;94909.66;;;18.91;63.83
52957;BME280;38819;42.692;23.342;2023-08-07T05:13:47;94910.81;;;18.90;63.36
52957;BME280;38819;42.692;23.342;2023-08-07T05:16:12;94905.16;;;18.98;63.80
52957;BME280;38819;42.692;23.342;2023-08-07T05:18:38;94906.75;;;19.15;63.36
52957;BME280;38819;42.692;23.342;2023-08-07T05:21:03;94895.38;;;19.13;62.74
52957;BME280;38819;42.692;23.342;2023-08-07T05:23:29;94896.56;;;19.16;61.90
52957;BME280;38819;42.692;23.342;2023-08-07T05:25:54;94905.91;;;19.31;61.27
52957;BME280;38819;42.692;23.342;2023-08-07T05:28:19;94903.44;;;19.41;61.22
52957;BME280;38819;42.692;23.342;2023-08-07T05:30:45;94902.81;;;19.32;61.05
52957;BME280;38819;42.692;23.342;2023-08-07T05:33:10;94912.78;;;19.40;61.14
52957;BME280;38819;42.692;23.342;2023-08-07T05:35:38;94908.22;;;19.29;61.24
52957;BME280;38819;42.692;23.342;2023-08-07T05:38:03;94908.06;;;19.21;61.29
52957;BME280;38819;42.692;23.342;2023-08-07T05:40:29;94910.09;;;19.24;61.65
52957;BME280;38819;42.692;23.342;2023-08-07T05:42:55;94901.16;;;19.28;61.17
52957;BME280;38819;42.692;23.342;2023-08-07T05:45:20;94919.88;;;19.41;61.19
52957;BME280;38819;42.692;23.342;2023-08-07T05:47:46;94917.91;;;19.42;60.86
52957;BME280;38819;42.692;23.342;2023-08-07T05:50:11;94911.66;;;19.41;60.63
52957;BME280;38819;42.692;23.342;2023-08-07T05:52:37;94917.38;;;19.52;60.47
52957;BME280;38819;42.692;23.342;2023-08-07T05:55:05;94912.25;;;19.51;60.66
52957;BME280;38819;42.692;23.342;2023-08-07T05:57:31;94910.09;;;19.60;60.67
52957;BME280;38819;42.692;23.342;2023-08-07T05:59:56;94913.06;;;19.51;60.50
52957;BME280;38819;42.692;23.342;2023-08-07T06:02:22;94910.75;;;19.53;61.16
52957;BME280;38819;42.692;23.342;2023-08-07T06:04:47;94917.63;;;19.63;60.26
52957;BME280;38819;42.692;23.342;2023-08-07T06:07:13;94913.28;;;19.62;60.02
52957;BME280;38819;42.692;23.342;2023-08-07T06:09:39;94914.97;;;19.51;60.84
52957;BME280;38819;42.692;23.342;2023-08-07T06:12:04;94915.59;;;19.60;60.09
52957;BME280;38819;42.692;23.342;2023-08-07T06:14:30;94911.47;;;19.50;59.13
52957;BME280;38819;42.692;23.342;2023-08-07T06:16:55;94904.91;;;19.55;59.64
52957;BME280;38819;42.692;23.342;2023-08-07T06:19:23;94907.38;;;19.60;58.97
52957;BME280;38819;42.692;23.342;2023-08-07T06:21:49;94897.19;;;19.60;58.65
52957;BME280;38819;42.692;23.342;2023-08-07T06:24:14;94899.00;;;19.88;58.47
52957;BME280;38819;42.692;23.342;2023-08-07T06:26:39;94897.25;;;19.99;58.89
52957;BME280;38819;42.692;23.342;2023-08-07T06:29:05;94894.44;;;19.96;58.42
52957;BME280;38819;42.692;23.342;2023-08-07T06:31:30;94898.84;;;20.01;58.36
52957;BME280;38819;42.692;23.342;2023-08-07T06:33:56;94896.31;;;19.92;57.95
52957;BME280;38819;42.692;23.342;2023-08-07T06:36:21;94894.00;;;19.94;56.44
52957;BME280;38819;42.692;23.342;2023-08-07T06:38:47;94888.38;;;20.06;57.06
52957;BME280;38819;42.692;23.342;2023-08-07T06:41:12;94898.47;;;20.02;57.66
52957;BME280;38819;42.692;23.342;2023-08-07T06:43:37;94895.59;;;19.95;57.21
52957;BME280;38819;42.692;23.342;2023-08-07T06:46:03;94909.88;;;20.04;54.96
52957;BME280;38819;42.692;23.342;2023-08-07T06:48:28;94907.88;;;19.82;53.94
52957;BME280;38819;42.692;23.342;2023-08-07T06:50:54;94920.00;;;20.00;54.63
52957;BME280;38819;42.692;23.342;2023-08-07T06:53:19;94907.72;;;20.13;54.10
52957;BME280;38819;42.692;23.342;2023-08-07T06:55:45;94909.81;;;20.20;54.25
52957;BME280;38819;42.692;23.342;2023-08-07T06:58:11;94915.38;;;20.24;52.49
52957;BME280;38819;42.692;23.342;2023-08-07T07:00:37;94909.81;;;20.20;52.81
52957;BME280;38819;42.692;23.342;2023-08-07T07:03:03;94918.47;;;20.03;53.19
52957;BME280;38819;42.692;23.342;2023-08-07T07:05:29;94910.97;;;20.19;53.13
52957;BME280;38819;42.692;23.342;2023-08-07T07:07:55;94902.59;;;20.31;52.85
52957;BME280;38819;42.692;23.342;2023-08-07T07:10:21;94919.31;;;20.46;52.44
52957;BME280;38819;42.692;23.342;2023-08-07T07:12:46;94912.53;;;20.40;53.63
52957;BME280;38819;42.692;23.342;2023-08-07T07:15:12;94918.09;;;20.43;53.02
52957;BME280;38819;42.692;23.342;2023-08-07T07:17:38;94903.94;;;20.41;53.15
52957;BME280;38819;42.692;23.342;2023-08-07T07:20:04;94905.81;;;20.37;52.33
52957;BME280;38819;42.692;23.342;2023-08-07T07:22:30;94900.69;;;20.35;51.68
52957;BME280;38819;42.692;23.342;2023-08-07T07:24:55;94901.28;;;20.45;51.88
52957;BME280;38819;42.692;23.342;2023-08-07T07:27:20;94899.75;;;20.47;52.15
52957;BME280;38819;42.692;23.342;2023-08-07T07:29:50;94898.22;;;20.50;52.43
52957;BME280;38819;42.692;23.342;2023-08-07T07:32:15;94892.00;;;20.53;51.51
52957;BME280;38819;42.692;23.342;2023-08-07T07:34:41;94905.00;;;20.56;51.40
52957;BME280;38819;42.692;23.342;2023-08-07T07:37:07;94892.78;;;20.73;50.97
52957;BME280;38819;42.692;23.342;2023-08-07T07:39:34;94889.66;;;20.75;50.02
52957;BME280;38819;42.692;23.342;2023-08-07T07:41:59;94891.16;;;20.68;50.40
52957;BME280;38819;42.692;23.342;2023-08-07T07:44:25;94889.97;;;20.69;50.06
52957;BME280;38819;42.692;23.342;2023-08-07T07:46:50;94890.78;;;20.70;50.04
52957;BME280;38819;42.692;23.342;2023-08-07T07:49:16;94889.88;;;20.85;50.40
52957;BME280;38819;42.692;23.342;2023-08-07T07:51:41;94902.50;;;20.90;49.49
52957;BME280;38819;42.692;23.342;2023-08-07T07:54:09;94891.50;;;20.90;49.67
52957;BME280;38819;42.692;23.342;2023-08-07T07:56:35;94901.63;;;20.86;49.63
52957;BME280;38819;42.692;23.342;2023-08-07T07:59:00;94905.66;;;20.92;49.61
52957;BME280;38819;42.692;23.342;2023-08-07T08:01:26;94891.25;;;20.99;49.41
52957;BME280;38819;42.692;23.342;2023-08-07T08:03:51;94892.47;;;21.01;48.61
52957;BME280;38819;42.692;23.342;2023-08-07T08:06:17;94892.34;;;20.94;48.60
52957;BME280;38819;42.692;23.342;2023-08-07T08:08:42;94884.13;;;20.94;47.96
52957;BME280;38819;42.692;23.342;2023-08-07T08:11:08;94888.81;;;20.94;47.97
52957;BME280;38819;42.692;23.342;2023-08-07T08:13:34;94892.03;;;20.99;47.52
52957;BME280;38819;42.692;23.342;2023-08-07T08:16:00;94894.47;;;21.04;46.94
52957;BME280;38819;42.692;23.342;2023-08-07T08:18:26;94900.38;;;21.06;46.39
52957;BME280;38819;42.692;23.342;2023-08-07T08:20:51;94885.97;;;21.13;46.48
52957;BME280;38819;42.692;23.342;2023-08-07T08:23:17;94882.41;;;21.09;46.56
52957;BME280;38819;42.692;23.342;2023-08-07T08:25:42;94876.75;;;21.25;46.87
52957;BME280;38819;42.692;23.342;2023-08-07T08:28:07;94888.00;;;21.43;46.83
52957;BME280;38819;42.692;23.342;2023-08-07T08:30:33;94878.72;;;21.51;46.92
52957;BME280;38819;42.692;23.342;2023-08-07T08:32:58;94881.47;;;21.51;46.30
52957;BME280;38819;42.692;23.342;2023-08-07T08:35:24;94884.25;;;21.55;46.21
52957;BME280;38819;42.692;23.342;2023-08-07T08:37:49;94871.44;;;21.62;46.57
52957;BME280;38819;42.692;23.342;2023-08-07T08:40:15;94868.41;;;21.71;46.21
52957;BME280;38819;42.692;23.342;2023-08-07T08:42:45;94859.88;;;21.80;46.01
52957;BME280;38819;42.692;23.342;2023-08-07T08:45:13;94872.03;;;21.79;45.42
52957;BME280;38819;42.692;23.342;2023-08-07T08:47:39;94870.16;;;21.87;45.10
52957;BME280;38819;42.692;23.342;2023-08-07T08:50:12;94874.69;;;21.72;45.41
52957;BME280;38819;42.692;23.342;2023-08-07T08:52:40;94865.28;;;21.73;45.23
52957;BME280;38819;42.692;23.342;2023-08-07T08:55:06;94857.22;;;21.87;45.03
52957;BME280;38819;42.692;23.342;2023-08-07T08:57:33;94863.53;;;21.91;44.06
52957;BME280;38819;42.692;23.342;2023-08-07T08:59:58;94854.34;;;22.10;44.14
52957;BME280;38819;42.692;23.342;2023-08-07T09:02:25;94849.75;;;22.21;44.69
52957;BME280;38819;42.692;23.342;2023-08-07T09:04:51;94847.03;;;22.25;44.29
52957;BME280;38819;42.692;23.342;2023-08-07T09:07:17;94845.06;;;22.22;45.07
52957;BME280;38819;42.692;23.342;2023-08-07T09:09:45;94860.94;;;22.36;44.48
52957;BME280;38819;42.692;23.342;2023-08-07T09:12:26;94858.66;;;22.45;44.60
52957;BME280;38819;42.692;23.342;2023-08-07T09:14:57;94857.44;;;22.39;44.27
52957;BME280;38819;42.692;23.342;2023-08-07T09:17:36;94855.47;;;22.39;44.27
52957;BME280;38819;42.692;23.342;2023-08-07T09:20:04;94851.25;;;22.49;44.16
52957;BME280;38819;42.692;23.342;2023-08-07T09:22:30;94843.75;;;22.46;44.51
52957;BME280;38819;42.692;23.342;2023-08-07T09:24:55;94853.63;;;22.51;44.85
52957;BME280;38819;42.692;23.342;2023-08-07T09:27:21;94844.88;;;22.42;44.75
52957;BME280;38819;42.692;23.342;2023-08-07T09:29:47;94834.31;;;22.44;44.80
52957;BME280;38819;42.692;23.342;2023-08-07T09:32:13;94831.59;;;22.47;45.74
52957;BME280;38819;42.692;23.342;2023-08-07T09:34:39;94824.66;;;22.64;45.32
52957;BME280;38819;42.692;23.342;2023-08-07T09:37:07;94825.06;;;22.66;45.13
52957;BME280;38819;42.692;23.342;2023-08-07T09:39:32;94821.13;;;22.64;44.96
52957;BME280;38819;42.692;23.342;2023-08-07T09:41:58;94824.66;;;22.64;44.28
52957;BME280;38819;42.692;23.342;2023-08-07T09:44:23;94826.28;;;22.69;44.81
52957;BME280;38819;42.692;23.342;2023-08-07T09:46:49;94820.88;;;22.83;44.43
52957;BME280;38819;42.692;23.342;2023-08-07T09:49:14;94831.63;;;22.99;44.83
52957;BME280;38819;42.692;23.342;2023-08-07T09:51:44;94832.91;;;23.09;44.33
52957;BME280;38819;42.692;23.342;2023-08-07T09:54:09;94824.28;;;23.10;43.91
52957;BME280;38819;42.692;23.342;2023-08-07T09:56:35;94813.28;;;23.18;43.04
52957;BME280;38819;42.692;23.342;2023-08-07T09:59:01;94825.75;;;23.04;43.21
52957;BME280;38819;42.692;23.342;2023-08-07T10:01:26;94812.44;;;23.10;42.42
52957;BME280;38819;42.692;23.342;2023-08-07T10:03:52;94821.09;;;23.12;43.11
52957;BME280;38819;42.692;23.342;2023-08-07T10:06:18;94824.31;;;23.18;42.98
52957;BME280;38819;42.692;23.342;2023-08-07T10:08:45;94819.19;;;23.20;43.36
52957;BME280;38819;42.692;23.342;2023-08-07T10:11:11;94829.47;;;23.23;42.18
52957;BME280;38819;42.692;23.342;2023-08-07T10:13:40;94822.44;;;23.33;41.83
52957;BME280;38819;42.692;23.342;2023-08-07T10:16:06;94818.16;;;23.42;42.49
52957;BME280;38819;42.692;23.342;2023-08-07T10:18:33;94817.81;;;23.51;42.84
52957;BME280;38819;42.692;23.342;2023-08-07T10:21:00;94814.72;;;23.60;41.83
52957;BME280;38819;42.692;23.342;2023-08-07T10:23:26;94820.25;;;23.67;41.34
52957;BME280;38819;42.692;23.342;2023-08-07T10:25:52;94810.81;;;23.72;40.76
52957;BME280;38819;42.692;23.342;2023-08-07T10:28:19;94819.09;;;23.75;41.45
52957;BME280;38819;42.692;23.342;2023-08-07T10:30:45;94815.66;;;23.89;41.19
52957;BME280;38819;42.692;23.342;2023-08-07T10:33:12;94820.00;;;23.94;41.71
52957;BME280;38819;42.692;23.342;2023-08-07T10:35:44;94821.22;;;24.00;41.31
52957;BME280;38819;42.692;23.342;2023-08-07T10:38:10;94810.56;;;23.95;40.65
52957;BME280;38819;42.692;23.342;2023-08-07T10:40:58;94809.00;;;24.01;41.46
52957;BME280;38819;42.692;23.342;2023-08-07T10:43:24;94802.28;;;24.02;41.15
52957;BME280;38819;42.692;23.342;2023-08-07T10:45:50;94810.19;;;24.07;41.20
52957;BME280;38819;42.692;23.342;2023-08-07T10:48:20;94806.66;;;24.14;41.00
52957;BME280;38819;42.692;23.342;2023-08-07T10:56:02;94798.38;;;24.14;40.81
52957;BME280;38819;42.692;23.342;2023-08-07T10:58:32;94801.56;;;24.16;41.29
52957;BME280;38819;42.692;23.342;2023-08-07T11:01:20;94801.97;;;24.18;41.59
52957;BME280;38819;42.692;23.342;2023-08-07T11:06:28;94783.41;;;24.15;39.41
52957;BME280;38819;42.692;23.342;2023-08-07T11:08:56;94795.66;;;24.25;40.31
52957;BME280;38819;42.692;23.342;2023-08-07T11:11:22;94791.75;;;24.29;40.25
52957;BME280;38819;42.692;23.342;2023-08-07T11:13:47;94781.88;;;24.39;39.96
52957;BME280;38819;42.692;23.342;2023-08-07T11:16:13;94773.19;;;24.22;39.68
52957;BME280;38819;42.692;23.342;2023-08-07T11:18:39;94766.88;;;24.18;40.00
52957;BME280;38819;42.692;23.342;2023-08-07T11:21:08;94759.00;;;24.31;40.33
52957;BME280;38819;42.692;23.342;2023-08-07T11:23:36;94762.56;;;24.46;40.87
52957;BME280;38819;42.692;23.342;2023-08-07T11:26:01;94752.75;;;24.56;40.90
52957;BME280;38819;42.692;23.342;2023-08-07T11:28:28;94748.81;;;24.68;40.58
52957;BME280;38819;42.692;23.342;2023-08-07T11:30:53;94763.00;;;24.66;40.52
52957;BME280;38819;42.692;23.342;2023-08-07T11:33:21;94750.75;;;24.67;40.28
52957;BME280;38819;42.692;23.342;2023-08-07T11:35:47;94754.72;;;24.70;40.59
52957;BME280;38819;42.692;23.342;2023-08-07T11:38:28;94754.31;;;24.71;40.32
52957;BME280;38819;42.692;23.342;2023-08-07T11:40:59;94751.56;;;24.68;40.02
52957;BME280;38819;42.692;23.342;2023-08-07T11:43:27;94744.06;;;24.65;40.06
52957;BME280;38819;42.692;23.342;2023-08-07T11:45:53;94755.13;;;24.65;40.45
52957;BME280;38819;42.692;23.342;2023-08-07T11:48:19;94744.47;;;24.63;40.44
52957;BME280;38819;42.692;23.342;2023-08-07T11:50:45;94748.00;;;24.67;39.98
52957;BME280;38819;42.692;23.342;2023-08-07T11:53:10;94750.00;;;24.63;40.42
52957;BME280;38819;42.692;23.342;2023-08-07T11:55:36;94750.38;;;24.69;40.64
52957;BME280;38819;42.692;23.342;2023-08-07T11:58:04;94763.78;;;24.59;40.19
52957;BME280;38819;42.692;23.342;2023-08-07T12:00:30;94751.19;;;24.69;40.19
52957;BME280;38819;42.692;23.342;2023-08-07T12:02:55;94754.31;;;24.75;40.55
52957;BME280;38819;42.692;23.342;2023-08-07T12:05:20;94767.72;;;24.80;39.44
52957;BME280;38819;42.692;23.342;2023-08-07T12:07:47;94740.50;;;24.82;39.85
52957;BME280;38819;42.692;23.342;2023-08-07T12:10:13;94740.88;;;24.95;40.50
52957;BME280;38819;42.692;23.342;2023-08-07T12:12:39;94728.25;;;24.98;40.43
52957;BME280;38819;42.692;23.342;2023-08-07T12:15:08;94738.88;;;25.10;40.03
52957;BME280;38819;42.692;23.342;2023-08-07T12:17:38;94723.06;;;25.21;40.00
52957;BME280;38819;42.692;23.342;2023-08-07T12:20:05;94721.88;;;25.33;40.58
52957;BME280;38819;42.692;23.342;2023-08-07T12:22:36;94731.34;;;25.32;39.43
52957;BME280;38819;42.692;23.342;2023-08-07T12:25:01;94725.44;;;25.33;39.96
52957;BME280;38819;42.692;23.342;2023-08-07T12:27:27;94722.63;;;25.44;40.37
52957;BME280;38819;42.692;23.342;2023-08-07T12:29:53;94718.25;;;25.58;39.52
52957;BME280;38819;42.692;23.342;2023-08-07T12:32:18;94722.94;;;25.64;40.17
52957;BME280;38819;42.692;23.342;2023-08-07T12:34:43;94721.75;;;25.62;39.38
52957;BME280;38819;42.692;23.342;2023-08-07T12:37:09;94734.41;;;25.66;39.69
52957;BME280;38819;42.692;23.342;2023-08-07T12:39:34;94726.84;;;25.70;40.17
52957;BME280;38819;42.692;23.342;2023-08-07T12:41:59;94726.41;;;25.83;39.55
52957;BME280;38819;42.692;23.342;2023-08-07T12:44:25;94730.38;;;25.82;39.95
52957;BME280;38819;42.692;23.342;2023-08-07T12:46:51;94728.44;;;25.72;40.25
52957;BME280;38819;42.692;23.342;2023-08-07T12:49:18;94739.47;;;25.79;40.39
52957;BME280;38819;42.692;23.342;2023-08-07T12:51:44;94727.16;;;25.87;40.58
52957;BME280;38819;42.692;23.342;2023-08-07T12:54:10;94726.00;;;25.88;40.38
52957;BME280;38819;42.692;23.342;2023-08-07T12:56:35;94734.66;;;25.97;40.59
52957;BME280;38819;42.692;23.342;2023-08-07T12:59:01;94748.53;;;25.86;40.88
52957;BME280;38819;42.692;23.342;2023-08-07T13:01:26;94728.81;;;25.74;40.91
52957;BME280;38819;42.692;23.342;2023-08-07T13:03:52;94756.88;;;25.72;41.31